Time;durP1;ratioP1;P1;durP2;ratioP2;P2;SDS_P1;SDS_P2;PMS_P1;PMS_P2;Temp;Humidity;BMP_temperature;BMP_pressure;BME280_temperature;BME280_humidity;BME280_pressure;Samples;Min_cycle;Max_cycle;Signal;HPM_P1;HPM_P2
2023/02/09 00:01:08;;;;;;;265.55;242.80;;;;;;;-4.01;78.61;103480.38;4997257;28;20038;-72
2023/02/09 00:03:35;;;;;;;264.42;242.18;;;;;;;-4.10;78.99;103481.03;5000683;28;20034;-70
2023/02/09 00:06:02;;;;;;;266.33;244.15;;;;;;;-4.08;78.72;103469.50;4976757;28;20206;-71
2023/02/09 00:08:29;;;;;;;265.20;242.95;;;;;;;-3.94;78.46;103465.91;4968140;28;20030;-72
2023/02/09 00:10:55;;;;;;;264.55;242.02;;;;;;;-4.07;78.69;103465.94;4982283;28;20053;-71
2023/02/09 00:13:21;;;;;;;253.73;231.00;;;;;;;-4.24;79.42;103464.50;4974599;28;20042;-71
2023/02/09 00:15:56;;;;;;;256.27;232.65;;;;;;;-4.16;79.42;103456.09;4991894;28;20042;-71
2023/02/09 00:18:23;;;;;;;255.50;232.35;;;;;;;-4.21;79.53;103448.56;4993143;28;21470;-72
2023/02/09 00:21:00;;;;;;;264.75;242.20;;;;;;;-4.26;79.24;103449.84;4979296;28;20050;-71
2023/02/09 00:23:28;;;;;;;263.77;241.63;;;;;;;-4.27;79.33;103448.97;4999156;28;20035;-72
2023/02/09 00:25:53;;;;;;;266.30;243.43;;;;;;;-4.30;79.75;103449.22;4992237;28;20034;-70
2023/02/09 00:28:20;;;;;;;256.02;232.65;;;;;;;-4.31;79.88;103460.63;4990313;28;20045;-74
2023/02/09 00:30:46;;;;;;;256.05;232.73;;;;;;;-4.49;80.32;103444.41;4998082;28;20508;-69
2023/02/09 00:33:11;;;;;;;255.00;231.50;;;;;;;-4.47;80.58;103437.31;4997002;28;20606;-71
2023/02/09 00:35:42;;;;;;;256.15;232.85;;;;;;;-4.52;80.55;103434.16;4984910;28;20048;-69
2023/02/09 00:38:11;;;;;;;252.75;229.77;;;;;;;-4.49;80.77;103426.09;5014056;28;20025;-71
2023/02/09 00:40:38;;;;;;;254.80;231.93;;;;;;;-4.53;80.46;103422.03;4986713;28;20045;-70
2023/02/09 00:43:05;;;;;;;267.65;244.90;;;;;;;-4.36;80.51;103426.09;5003650;28;20438;-70
2023/02/09 00:45:31;;;;;;;265.65;243.02;;;;;;;-4.41;80.12;103415.09;4987182;28;20034;-72
2023/02/09 00:47:57;;;;;;;255.13;231.90;;;;;;;-4.32;79.84;103422.31;5000870;28;20944;-71
2023/02/09 00:50:24;;;;;;;264.13;241.70;;;;;;;-4.34;80.09;103415.50;4999501;28;20060;-73
2023/02/09 00:52:50;;;;;;;256.25;232.65;;;;;;;-4.24;79.76;103409.53;4997458;28;20046;-72
2023/02/09 00:55:16;;;;;;;266.48;243.80;;;;;;;-4.39;80.10;103392.31;5010698;28;20056;-71
2023/02/09 00:57:42;;;;;;;264.23;241.68;;;;;;;-4.41;80.14;103394.16;4997164;28;20034;-73
2023/02/09 01:00:08;;;;;;;266.80;244.10;;;;;;;-4.39;80.39;103392.31;4978096;28;20060;-71
2023/02/09 01:02:35;;;;;;;254.40;231.13;;;;;;;-4.50;80.51;103394.81;4996868;28;20167;-74
2023/02/09 01:05:01;;;;;;;253.25;230.23;;;;;;;-4.39;80.35;103392.31;5013284;28;20527;-70
2023/02/09 01:07:26;;;;;;;265.83;243.40;;;;;;;-4.43;80.61;103399.50;5000593;28;20114;-74
2023/02/09 01:09:52;;;;;;;265.08;242.68;;;;;;;-4.33;80.20;103391.88;5005109;28;20392;-72
2023/02/09 01:12:18;;;;;;;266.88;244.18;;;;;;;-4.64;80.83;103398.38;4999591;28;20030;-73
2023/02/09 01:14:44;;;;;;;269.17;245.98;;;;;;;-4.60;81.46;103383.31;4966416;28;20067;-72
2023/02/09 01:17:09;;;;;;;266.67;244.02;;;;;;;-4.69;81.54;103385.59;4999038;28;20241;-72
2023/02/09 01:19:35;;;;;;;263.83;241.60;;;;;;;-4.59;81.25;103387.59;4996459;28;20259;-72
2023/02/09 01:22:03;;;;;;;256.70;233.27;;;;;;;-4.72;81.53;103387.59;4995039;28;20132;-72
2023/02/09 01:24:28;;;;;;;266.15;243.32;;;;;;;-4.67;81.59;103373.28;4999702;28;20053;-71
2023/02/09 01:26:54;;;;;;;264.40;242.00;;;;;;;-4.68;81.14;103368.97;4999988;28;20394;-71
2023/02/09 01:29:20;;;;;;;267.83;244.95;;;;;;;-4.84;81.98;103381.41;5001266;28;20180;-71
2023/02/09 01:31:47;;;;;;;252.18;229.13;;;;;;;-5.01;82.42;103374.72;5001708;28;20568;-72
2023/02/09 01:34:16;;;;;;;251.75;229.10;;;;;;;-5.08;82.48;103368.25;4999110;28;20531;-73
2023/02/09 01:36:43;;;;;;;257.75;234.25;;;;;;;-5.07;82.85;103362.06;4981806;28;20120;-71
2023/02/09 01:39:10;;;;;;;254.48;230.98;;;;;;;-5.03;82.62;103353.06;4999258;28;20029;-72
2023/02/09 01:41:36;;;;;;;264.27;242.02;;;;;;;-4.93;82.47;103355.09;4997207;28;20038;-73
2023/02/09 01:44:26;;;;;;;267.08;244.35;;;;;;;-5.01;82.51;103353.81;4998920;28;20079;-70
2023/02/09 01:46:52;;;;;;;263.73;241.18;;;;;;;-4.84;82.01;103347.44;4995176;28;20506;-71
2023/02/09 01:49:26;;;;;;;255.07;231.82;;;;;;;-4.78;81.74;103336.56;4980433;28;20092;-70
2023/02/09 01:52:06;;;;;;;267.35;243.82;;;;;;;-4.74;81.41;103335.44;5000785;28;20414;-72
2023/02/09 01:54:32;;;;;;;261.95;239.98;;;;;;;-4.59;80.49;103332.69;5029144;28;20026;-73
2023/02/09 01:57:05;;;;;;;264.17;241.52;;;;;;;-4.51;80.84;103330.38;5001461;28;20034;-72
2023/02/09 01:59:33;;;;;;;251.95;229.15;;;;;;;-4.60;81.00;103331.03;5002948;28;20044;-71
2023/02/09 02:01:59;;;;;;;251.27;228.63;;;;;;;-4.60;81.23;103336.25;4985602;28;20045;-72
2023/02/09 02:04:25;;;;;;;264.13;241.75;;;;;;;-4.51;80.34;103332.97;5003556;28;20420;-71
2023/02/09 02:06:57;;;;;;;262.15;239.98;;;;;;;-4.55;80.97;103328.91;5013536;28;20629;-71
2023/02/09 02:09:23;;;;;;;252.20;229.32;;;;;;;-4.58;80.68;103329.13;4998271;28;20034;-72
2023/02/09 02:11:49;;;;;;;262.73;240.55;;;;;;;-4.69;81.20;103316.78;4999544;28;20056;-70
2023/02/09 02:14:30;;;;;;;263.23;240.90;;;;;;;-4.77;81.24;103321.72;4986188;28;20410;-72
2023/02/09 02:17:18;;;;;;;253.15;230.25;;;;;;;-4.83;81.87;103315.13;4998372;28;20033;-70
2023/02/09 02:20:08;;;;;;;249.88;227.57;;;;;;;-4.83;81.44;103309.91;4984361;28;20041;-72
2023/02/09 02:23:05;;;;;;;253.93;230.82;;;;;;;-5.05;82.00;103312.31;4978401;28;20113;-72
2023/02/09 02:26:08;;;;;;;253.65;230.30;;;;;;;-5.15;82.33;103308.63;4998321;28;20041;-70
2023/02/09 02:28:34;;;;;;;252.70;229.80;;;;;;;-5.13;82.35;103312.00;4984502;28;20057;-72
2023/02/09 02:31:12;;;;;;;264.83;242.40;;;;;;;-5.22;82.60;103313.44;4988832;28;20091;-72
2023/02/09 02:34:05;;;;;;;251.07;228.57;;;;;;;-5.39;82.95;103311.97;4986549;28;20049;-71
2023/02/09 02:36:54;;;;;;;249.48;227.25;;;;;;;-5.45;83.56;103306.31;5000192;28;20115;-70
2023/02/09 02:39:23;;;;;;;249.38;226.63;;;;;;;-5.48;82.90;103306.53;4985580;28;20501;-72
2023/02/09 02:45:15;;;;;;;248.57;226.23;;;;;;;-5.63;83.43;103301.34;4999160;28;20092;-72
2023/02/09 02:47:46;;;;;;;262.95;240.63;;;;;;;-5.57;83.52;103298.34;4996736;28;20044;-69
2023/02/09 02:50:15;;;;;;;260.85;238.63;;;;;;;-5.62;82.96;103308.28;4997523;28;20057;-72
2023/02/09 02:52:46;;;;;;;249.88;227.20;;;;;;;-5.67;83.54;103299.06;4980984;28;20499;-72
2023/02/09 02:55:15;;;;;;;262.15;239.68;;;;;;;-5.45;83.01;103288.88;5001935;28;20042;-70
2023/02/09 02:57:45;;;;;;;262.45;240.27;;;;;;;-5.57;83.12;103287.91;4998651;28;20648;-70
2023/02/09 03:00:20;;;;;;;248.43;226.02;;;;;;;-5.64;83.25;103296.22;5027877;28;20514;-69
2023/02/09 03:02:52;;;;;;;259.05;237.25;;;;;;;-5.74;83.32;103295.19;4998224;28;20042;-70
2023/02/09 03:05:22;;;;;;;255.88;234.60;;;;;;;-5.80;82.99;103294.63;4981383;28;20077;-73
2023/02/09 03:07:48;;;;;;;247.65;225.20;;;;;;;-5.76;83.38;103284.81;5000263;28;20125;-68
2023/02/09 03:10:35;;;;;;;248.27;226.15;;;;;;;-5.79;83.35;103285.88;4994786;28;20111;-70
2023/02/09 03:13:37;;;;;;;246.25;223.95;;;;;;;-5.61;83.44;103276.00;5014162;28;20061;-69
2023/02/09 03:16:38;;;;;;;262.67;240.48;;;;;;;-5.70;83.76;103276.59;5001431;28;20065;-69
2023/02/09 03:19:15;;;;;;;256.98;235.20;;;;;;;-5.86;83.98;103287.19;5000470;28;20037;-70
2023/02/09 03:22:04;;;;;;;248.00;225.60;;;;;;;-5.79;83.46;103274.59;4999269;28;20517;-71
2023/02/09 03:24:42;;;;;;;255.43;233.85;;;;;;;-5.73;83.78;103275.97;5027221;28;20037;-71
2023/02/09 03:27:23;;;;;;;255.65;234.13;;;;;;;-5.66;83.32;103266.78;4997051;28;20053;-72
2023/02/09 03:29:53;;;;;;;259.75;238.00;;;;;;;-5.82;83.18;103254.75;4996247;28;20036;-70
2023/02/09 03:32:21;;;;;;;262.70;240.40;;;;;;;-5.91;83.25;103252.75;4981964;28;20034;-70
2023/02/09 03:34:47;;;;;;;258.13;236.60;;;;;;;-5.85;83.42;103248.88;4999115;28;20510;-72
2023/02/09 03:37:13;;;;;;;245.40;222.82;;;;;;;-5.94;83.20;103247.75;4970278;28;20048;-72
2023/02/09 03:39:39;;;;;;;248.68;226.43;;;;;;;-5.98;82.89;103241.06;4997166;28;20030;-70
2023/02/09 03:42:05;;;;;;;248.93;226.35;;;;;;;-6.06;83.57;103230.28;5015780;28;20053;-70
2023/02/09 03:44:31;;;;;;;246.18;223.98;;;;;;;-5.99;83.39;103228.13;4997888;28;20064;-69
2023/02/09 03:47:05;;;;;;;261.48;239.57;;;;;;;-5.99;83.44;103228.13;4998476;28;20029;-72
2023/02/09 03:49:33;;;;;;;249.65;227.38;;;;;;;-6.00;83.24;103221.22;4999719;28;20086;-69
2023/02/09 03:52:01;;;;;;;250.10;227.48;;;;;;;-5.81;83.66;103222.50;4998768;28;20034;-73
2023/02/09 03:54:31;;;;;;;250.10;227.52;;;;;;;-6.05;83.63;103224.13;5011188;28;20461;-72
2023/02/09 03:56:58;;;;;;;259.80;237.70;;;;;;;-5.93;84.15;103235.53;4996682;28;20041;-72
2023/02/09 03:59:24;;;;;;;260.15;238.45;;;;;;;-5.81;83.92;103227.72;5016577;28;20495;-69
2023/02/09 04:01:52;;;;;;;250.80;228.18;;;;;;;-5.83;83.58;103224.34;4998404;28;20120;-71
2023/02/09 04:04:19;;;;;;;250.27;227.68;;;;;;;-5.82;83.27;103218.22;5011293;28;20038;-70
2023/02/09 04:06:45;;;;;;;249.48;227.05;;;;;;;-6.07;83.60;103226.84;4995550;28;20049;-70
2023/02/09 04:09:12;;;;;;;253.80;230.30;;;;;;;-6.19;83.90;103216.38;4986409;28;20565;-72
2023/02/09 04:11:40;;;;;;;260.52;238.00;;;;;;;-6.21;84.19;103213.84;5001596;28;20034;-72
2023/02/09 04:14:07;;;;;;;258.02;236.55;;;;;;;-6.26;83.68;103226.34;4999417;28;20117;-70
2023/02/09 04:16:34;;;;;;;260.58;238.63;;;;;;;-6.19;84.00;103222.41;4987153;28;20391;-72
2023/02/09 04:19:00;;;;;;;249.25;226.77;;;;;;;-6.19;84.05;103221.59;4983469;28;20596;-72
2023/02/09 04:21:26;;;;;;;255.68;234.30;;;;;;;-6.09;84.08;103220.06;5000611;28;20065;-69
2023/02/09 04:23:51;;;;;;;254.05;232.68;;;;;;;-6.09;83.98;103207.84;5027747;28;20038;-70
2023/02/09 04:26:17;;;;;;;256.38;234.95;;;;;;;-6.12;83.89;103213.25;5002885;28;20030;-71
2023/02/09 04:28:43;;;;;;;253.80;232.70;;;;;;;-5.92;84.17;103198.06;5004237;28;20040;-73
2023/02/09 04:31:09;;;;;;;254.32;232.88;;;;;;;-6.00;84.02;103195.13;5002931;28;20034;-69
2023/02/09 04:33:36;;;;;;;255.40;233.35;;;;;;;-5.98;83.88;103188.03;4987183;28;20041;-72
2023/02/09 04:36:02;;;;;;;251.45;230.48;;;;;;;-5.92;83.77;103192.84;4987674;28;20046;-72
2023/02/09 04:38:28;;;;;;;240.52;219.02;;;;;;;-5.75;83.25;103189.94;4990330;28;20034;-71
2023/02/09 04:40:57;;;;;;;256.13;234.55;;;;;;;-5.66;83.29;103185.88;4979428;28;20046;-72
2023/02/09 04:43:22;;;;;;;256.25;234.88;;;;;;;-5.72;83.65;103175.84;4999371;28;20034;-70
2023/02/09 04:45:48;;;;;;;254.15;233.10;;;;;;;-5.55;83.40;103183.38;5002145;28;20036;-70
2023/02/09 04:48:17;;;;;;;257.05;235.75;;;;;;;-5.51;82.64;103179.59;4999589;28;20462;-70
2023/02/09 04:50:42;;;;;;;239.63;218.50;;;;;;;-5.31;82.11;103173.00;4968156;28;20377;-70
2023/02/09 04:53:09;;;;;;;237.65;216.20;;;;;;;-5.08;81.21;103169.66;4998752;28;20037;-70
2023/02/09 04:55:39;;;;;;;238.27;216.98;;;;;;;-5.05;81.12;103163.34;5001089;28;20030;-71
2023/02/09 05:00:49;;;;;;;251.82;231.10;;;;;;;-4.83;80.26;103160.88;5000236;28;20487;-69
2023/02/09 05:03:15;;;;;;;236.95;215.73;;;;;;;-4.59;79.22;103165.31;5000380;28;20030;-70
2023/02/09 05:05:41;;;;;;;238.35;217.13;;;;;;;-4.57;78.75;103168.66;5006698;28;20044;-71
2023/02/09 05:08:08;;;;;;;235.90;214.95;;;;;;;-4.43;77.81;103160.63;4981771;28;20502;-70
2023/02/09 05:10:34;;;;;;;236.43;215.35;;;;;;;-4.59;78.19;103166.16;5000937;28;20046;-72
2023/02/09 05:13:00;;;;;;;236.88;215.82;;;;;;;-4.55;78.57;103156.28;4999626;28;20038;-72
2023/02/09 05:15:25;;;;;;;251.30;230.70;;;;;;;-4.57;78.31;103160.81;4998344;28;20040;-74
2023/02/09 05:17:51;;;;;;;233.32;212.88;;;;;;;-4.59;78.29;103181.00;4999606;28;20494;-70
2023/02/09 05:20:17;;;;;;;234.82;214.25;;;;;;;-4.63;78.23;103179.53;5003143;28;20033;-70
2023/02/09 05:22:43;;;;;;;234.65;214.02;;;;;;;-4.75;78.53;103168.19;4984918;28;20109;-71
2023/02/09 05:25:08;;;;;;;238.55;217.27;;;;;;;-4.85;78.84;103157.56;5004324;28;20481;-73
2023/02/09 05:27:34;;;;;;;247.57;227.25;;;;;;;-4.84;78.71;103156.59;5004243;28;20041;-69
2023/02/09 05:29:59;;;;;;;233.32;212.65;;;;;;;-4.70;78.50;103139.94;5004297;28;20045;-71
2023/02/09 05:32:25;;;;;;;250.65;230.15;;;;;;;-4.49;77.64;103135.75;5006123;28;20033;-68
2023/02/09 05:34:51;;;;;;;235.80;215.20;;;;;;;-4.66;78.19;103141.41;5007681;28;20057;-70
2023/02/09 05:37:16;;;;;;;246.52;226.50;;;;;;;-4.57;78.05;103145.94;5000990;28;20479;-69
2023/02/09 05:39:42;;;;;;;250.13;229.60;;;;;;;-4.48;77.35;103152.28;5003696;28;20037;-68
2023/02/09 05:42:15;;;;;;;246.82;226.75;;;;;;;-4.33;76.40;103140.72;5006642;28;20030;-73
2023/02/09 05:44:46;;;;;;;231.48;211.15;;;;;;;-4.19;76.41;103131.84;5007568;28;20029;-70
2023/02/09 05:47:14;;;;;;;231.13;210.85;;;;;;;-4.21;76.54;103125.88;4998514;28;20109;-73
2023/02/09 05:49:40;;;;;;;245.82;225.82;;;;;;;-4.09;75.95;103122.34;5002257;28;20538;-72
2023/02/09 05:52:06;;;;;;;246.85;226.63;;;;;;;-4.29;76.83;103143.94;5001685;28;20042;-75
2023/02/09 05:54:33;;;;;;;233.48;212.70;;;;;;;-4.17;76.16;103151.72;5005329;28;20045;-72
2023/02/09 05:56:58;;;;;;;242.70;222.88;;;;;;;-4.30;76.67;103161.41;5006019;28;20107;-71
2023/02/09 05:59:24;;;;;;;231.27;210.98;;;;;;;-4.19;76.21;103164.06;5005195;28;20630;-73
2023/02/09 06:01:50;;;;;;;247.65;227.52;;;;;;;-4.16;75.42;103161.22;5005488;28;20037;-68
2023/02/09 06:04:16;;;;;;;233.30;212.32;;;;;;;-4.16;75.65;103174.31;5009744;28;20034;-72
2023/02/09 06:06:41;;;;;;;235.30;214.65;;;;;;;-4.19;75.74;103169.31;5005827;28;20134;-72
2023/02/09 06:09:07;;;;;;;247.68;227.45;;;;;;;-4.22;75.78;103172.13;5007352;28;20491;-72
2023/02/09 06:11:33;;;;;;;242.77;223.15;;;;;;;-4.42;76.80;103172.75;5005814;28;20040;-71
2023/02/09 06:13:59;;;;;;;231.45;211.30;;;;;;;-4.38;77.01;103161.13;4988701;28;20041;-71
2023/02/09 06:16:25;;;;;;;231.32;211.18;;;;;;;-4.51;77.62;103183.91;5002909;28;20121;-70
2023/02/09 06:18:50;;;;;;;243.45;223.90;;;;;;;-4.42;77.17;103180.59;5000694;28;20233;-70
2023/02/09 06:21:16;;;;;;;230.00;209.93;;;;;;;-4.44;77.41;103183.34;4989253;28;20778;-72
2023/02/09 06:23:42;;;;;;;231.23;211.20;;;;;;;-4.40;77.05;103176.13;5004690;28;20034;-70
2023/02/09 06:26:09;;;;;;;246.45;226.52;;;;;;;-4.25;76.71;103169.75;5002104;28;20496;-72
2023/02/09 06:28:35;;;;;;;231.48;211.10;;;;;;;-4.21;76.33;103175.59;5001857;28;20042;-72
2023/02/09 06:31:04;;;;;;;241.60;222.18;;;;;;;-4.19;75.93;103186.78;5001442;28;20037;-70
2023/02/09 06:33:30;;;;;;;229.38;209.20;;;;;;;-3.99;75.31;103186.16;5005047;28;20407;-71
2023/02/09 06:35:56;;;;;;;246.90;227.00;;;;;;;-3.92;74.09;103178.69;5004601;28;20041;-71
2023/02/09 06:38:22;;;;;;;232.75;212.55;;;;;;;-3.87;74.30;103185.22;5000410;28;20148;-70
2023/02/09 06:40:47;;;;;;;243.35;223.95;;;;;;;-3.92;74.84;103187.38;5001994;28;20048;-69
2023/02/09 06:43:13;;;;;;;232.70;212.57;;;;;;;-3.97;74.83;103184.25;4995967;28;20479;-70
2023/02/09 06:45:39;;;;;;;242.85;223.25;;;;;;;-3.83;74.45;103185.00;5003955;28;20030;-72
2023/02/09 06:48:06;;;;;;;241.60;221.98;;;;;;;-3.80;74.29;103175.13;5003189;28;20041;-72
2023/02/09 06:50:36;;;;;;;230.20;210.05;;;;;;;-3.73;73.85;103170.25;4980369;28;20085;-72
2023/02/09 06:53:03;;;;;;;232.63;212.25;;;;;;;-3.68;73.61;103168.97;5003399;28;20087;-71
2023/02/09 06:55:29;;;;;;;242.73;223.38;;;;;;;-3.76;73.56;103163.47;5004657;28;20112;-69
2023/02/09 06:57:55;;;;;;;229.52;209.20;;;;;;;-3.59;73.61;103163.03;5004204;28;20794;-74
2023/02/09 07:00:21;;;;;;;244.00;224.25;;;;;;;-3.65;73.23;103166.13;5031874;28;20723;-72
2023/02/09 07:02:47;;;;;;;228.20;208.52;;;;;;;-3.52;72.95;103162.53;4997315;28;20651;-72
2023/02/09 07:05:14;;;;;;;242.40;222.98;;;;;;;-3.42;72.40;103160.91;4998082;28;20026;-72
2023/02/09 07:07:40;;;;;;;227.77;207.93;;;;;;;-3.45;72.36;103167.22;4999340;28;20037;-71
2023/02/09 07:10:06;;;;;;;226.23;206.43;;;;;;;-3.47;72.81;103160.41;4985535;28;20026;-72
2023/02/09 07:12:32;;;;;;;237.73;218.80;;;;;;;-3.43;72.88;103154.00;5016606;28;20069;-73
2023/02/09 07:14:59;;;;;;;243.75;224.05;;;;;;;-3.47;73.31;103163.03;5001106;28;20055;-70
2023/02/09 07:17:27;;;;;;;228.07;208.32;;;;;;;-3.38;72.83;103164.97;5017536;28;20044;-71
2023/02/09 07:19:53;;;;;;;228.95;209.18;;;;;;;-3.42;72.80;103164.34;4997128;28;20025;-69
2023/02/09 07:22:21;;;;;;;228.95;208.95;;;;;;;-3.45;73.01;103171.63;4996006;28;20076;-72
2023/02/09 07:24:47;;;;;;;240.60;221.48;;;;;;;-3.50;73.17;103169.34;5005154;28;20045;-69
2023/02/09 07:27:14;;;;;;;227.27;207.57;;;;;;;-3.49;73.22;103152.69;4997619;28;20045;-70
2023/02/09 07:29:39;;;;;;;240.88;221.63;;;;;;;-3.48;72.92;103159.59;5002119;28;20487;-71
2023/02/09 07:32:06;;;;;;;241.82;222.48;;;;;;;-3.48;72.38;103166.59;5001874;28;20049;-72
2023/02/09 07:34:32;;;;;;;242.00;222.40;;;;;;;-3.32;72.20;103173.19;5001494;28;20117;-72
2023/02/09 07:36:58;;;;;;;242.35;223.25;;;;;;;-3.35;71.45;103165.53;4999658;28;20048;-72
2023/02/09 07:39:24;;;;;;;242.35;222.98;;;;;;;-3.36;72.58;103170.91;5001590;28;20034;-73
2023/02/09 07:41:50;;;;;;;242.18;221.93;;;;;;;-3.32;72.40;103174.94;5019231;28;20816;-72
2023/02/09 07:44:16;;;;;;;226.27;206.68;;;;;;;-3.26;72.38;103171.84;5002923;28;20042;-72
2023/02/09 07:46:42;;;;;;;226.18;206.57;;;;;;;-3.18;71.70;103182.59;5015384;28;20589;-71
2023/02/09 07:49:08;;;;;;;224.65;205.18;;;;;;;-3.18;71.82;103177.34;4983982;28;20092;-72
2023/02/09 07:51:33;;;;;;;239.85;220.75;;;;;;;-3.17;71.97;103184.25;4974702;28;20116;-73
2023/02/09 07:53:59;;;;;;;240.88;221.88;;;;;;;-3.08;71.09;103183.53;5003884;28;20483;-72
2023/02/09 07:56:25;;;;;;;224.20;204.88;;;;;;;-2.97;70.91;103181.88;5002429;28;20040;-73
2023/02/09 07:58:52;;;;;;;226.98;207.38;;;;;;;-2.95;71.10;103193.06;4998405;28;20115;-72
2023/02/09 08:01:18;;;;;;;238.23;219.07;;;;;;;-2.89;70.63;103182.09;5000721;28;20592;-72
2023/02/09 08:03:46;;;;;;;221.32;202.35;;;;;;;-2.84;71.11;103186.03;4989665;28;20171;-70
2023/02/09 08:06:41;;;;;;;240.13;220.60;;;;;;;-2.84;70.88;103188.66;4998564;28;20372;-73
2023/02/09 08:09:08;;;;;;;221.23;201.90;;;;;;;-2.73;70.24;103182.53;5000571;28;20675;-72
2023/02/09 08:11:42;;;;;;;238.00;219.20;;;;;;;-2.74;70.58;103191.34;5013766;28;20030;-73
2023/02/09 08:14:12;;;;;;;222.93;203.65;;;;;;;-2.69;70.91;103191.00;5015907;28;20054;-72
2023/02/09 08:16:39;;;;;;;240.68;221.68;;;;;;;-2.71;70.95;103196.34;4997095;28;20057;-71
2023/02/09 08:19:11;;;;;;;239.38;220.15;;;;;;;-2.61;70.60;103184.19;4996646;28;20026;-71
2023/02/09 08:21:40;;;;;;;236.75;217.63;;;;;;;-2.59;70.77;103178.81;5003240;28;20119;-71
2023/02/09 08:24:09;;;;;;;237.38;218.75;;;;;;;-2.52;70.34;103174.72;5000374;28;20046;-70
2023/02/09 08:26:35;;;;;;;234.68;216.27;;;;;;;-2.45;69.81;103180.31;5000963;28;20057;-72
2023/02/09 08:29:01;;;;;;;237.35;218.52;;;;;;;-2.27;69.90;103189.31;5003122;28;20070;-70
2023/02/09 08:31:27;;;;;;;234.90;216.32;;;;;;;-2.20;69.26;103175.56;5010275;28;20719;-73
2023/02/09 08:33:53;;;;;;;236.25;217.82;;;;;;;-2.13;69.78;103189.03;5001855;28;20033;-71
2023/02/09 08:36:19;;;;;;;230.70;212.57;;;;;;;-2.13;68.95;103185.56;5003159;28;20033;-71
2023/02/09 08:38:47;;;;;;;235.75;217.02;;;;;;;-2.04;69.29;103176.94;4985209;28;20041;-72
2023/02/09 08:41:14;;;;;;;219.43;200.35;;;;;;;-2.00;69.11;103179.19;4998158;28;20484;-73
2023/02/09 08:43:39;;;;;;;222.63;203.35;;;;;;;-1.90;69.20;103181.88;4998579;28;20034;-73
2023/02/09 08:46:08;;;;;;;224.27;204.93;;;;;;;-1.79;68.27;103180.97;4986464;28;20041;-70
2023/02/09 08:48:36;;;;;;;234.43;216.18;;;;;;;-1.67;67.85;103179.97;4997116;28;20034;-72
2023/02/09 08:51:03;;;;;;;236.52;217.98;;;;;;;-1.59;67.06;103169.63;4981130;28;20044;-73
2023/02/09 08:53:29;;;;;;;235.70;217.25;;;;;;;-1.47;67.23;103173.84;5002427;28;20034;-73
2023/02/09 08:55:54;;;;;;;236.85;218.63;;;;;;;-1.33;66.67;103169.22;4985456;28;20057;-73
2023/02/09 08:58:20;;;;;;;237.98;219.43;;;;;;;-1.16;66.19;103163.31;5000507;28;20105;-72
2023/02/09 09:00:46;;;;;;;234.13;216.02;;;;;;;-1.07;65.64;103172.22;4990916;28;20044;-71
2023/02/09 09:03:11;;;;;;;237.38;218.80;;;;;;;-1.03;65.66;103166.53;4986997;28;20465;-72
2023/02/09 09:05:37;;;;;;;218.45;199.65;;;;;;;-0.81;64.74;103160.25;4985514;28;20037;-72
2023/02/09 09:08:04;;;;;;;217.27;198.60;;;;;;;-0.68;64.53;103171.31;5001171;28;20048;-73
2023/02/09 09:10:31;;;;;;;213.98;195.63;;;;;;;-0.70;63.34;103167.19;5002931;28;20031;-73
2023/02/09 09:12:57;;;;;;;209.38;191.15;;;;;;;-0.44;60.49;103167.50;5019388;28;20057;-71
2023/02/09 09:15:23;;;;;;;231.20;213.32;;;;;;;-0.44;60.87;103152.53;5006209;28;20029;-72
2023/02/09 09:17:49;;;;;;;232.65;214.70;;;;;;;-0.35;60.23;103151.69;5001307;28;20053;-72
2023/02/09 09:20:15;;;;;;;215.25;196.23;;;;;;;-0.24;60.62;103142.84;4987674;28;20427;-72
2023/02/09 09:22:40;;;;;;;229.75;211.98;;;;;;;-0.11;60.20;103150.44;5002338;28;20048;-72
2023/02/09 09:25:06;;;;;;;231.85;214.02;;;;;;;-0.12;59.62;103146.16;5001620;28;20046;-73
2023/02/09 09:27:33;;;;;;;229.20;211.70;;;;;;;0.07;59.10;103140.88;4982684;28;20147;-73
2023/02/09 09:29:59;;;;;;;231.80;213.82;;;;;;;0.07;58.75;103134.75;5003446;28;20044;-71
2023/02/09 09:32:25;;;;;;;214.15;196.15;;;;;;;0.10;59.82;103135.31;4989172;28;20566;-73
2023/02/09 09:34:56;;;;;;;214.95;196.25;;;;;;;0.21;58.78;103137.78;5003546;28;20069;-72
2023/02/09 09:37:23;;;;;;;217.05;198.48;;;;;;;0.28;57.38;103124.03;4983121;28;20195;-72
2023/02/09 09:39:49;;;;;;;229.85;212.02;;;;;;;0.38;58.62;103116.91;4982418;28;20413;-72
2023/02/09 09:42:26;;;;;;;227.77;210.35;;;;;;;0.40;58.13;103114.97;5002125;28;20076;-72
2023/02/09 09:44:53;;;;;;;214.07;196.15;;;;;;;0.52;58.48;103121.72;5004013;28;20041;-71
2023/02/09 09:47:35;;;;;;;213.18;194.88;;;;;;;0.58;57.70;103113.22;5000189;28;20034;-72
2023/02/09 09:50:06;;;;;;;230.73;212.80;;;;;;;0.69;57.89;103106.94;5007118;28;20064;-69
2023/02/09 09:52:41;;;;;;;213.15;194.48;;;;;;;0.73;57.62;103106.50;5009161;28;20056;-72
2023/02/09 09:55:18;;;;;;;229.52;211.32;;;;;;;0.77;58.03;103102.59;5006423;28;20030;-72
2023/02/09 09:57:44;;;;;;;227.57;209.35;;;;;;;0.82;57.08;103100.34;5003844;28;20057;-70
2023/02/09 10:00:18;;;;;;;231.68;213.57;;;;;;;0.76;56.73;103105.38;5002239;28;20430;-73
2023/02/09 10:02:44;;;;;;;228.18;210.43;;;;;;;0.82;56.93;103094.25;5025112;28;20030;-73
2023/02/09 10:05:20;;;;;;;217.82;199.95;;;;;;;0.85;56.81;103101.03;5000432;28;20041;-73
2023/02/09 10:08:09;;;;;;;229.52;211.52;;;;;;;0.76;55.87;103106.22;5002306;28;20044;-73
2023/02/09 10:10:55;;;;;;;227.98;210.75;;;;;;;0.92;56.52;103099.47;5003366;28;20148;-71
2023/02/09 10:13:26;;;;;;;231.32;213.73;;;;;;;1.25;57.07;103119.09;4969962;28;20042;-73
2023/02/09 10:15:55;;;;;;;232.27;214.45;;;;;;;1.23;55.60;103121.91;5001570;28;20042;-72
2023/02/09 10:18:24;;;;;;;217.02;198.38;;;;;;;1.32;56.73;103123.63;5003028;28;20658;-73
2023/02/09 10:21:07;;;;;;;227.95;210.18;;;;;;;1.34;54.50;103108.47;5008156;28;20037;-73
2023/02/09 10:23:40;;;;;;;;;;;;;;;1.23;56.23;103113.16;4989514;28;20037;-73
2023/02/09 10:26:06;;;;;;;233.05;215.07;;;;;;;1.28;56.47;103093.22;5004801;28;19917;-73
2023/02/09 10:28:39;;;;;;;229.50;211.52;;;;;;;1.44;55.85;103097.03;5010210;28;20838;-72
2023/02/09 10:31:31;;;;;;;226.55;208.57;;;;;;;1.48;55.59;103098.34;5005516;28;20566;-73
2023/02/09 10:34:03;;;;;;;227.15;209.38;;;;;;;1.39;55.33;103088.72;4995384;28;20133;-70
2023/02/09 10:36:35;;;;;;;147.00;117.80;;;;;;;1.45;55.49;103067.00;5003887;28;20034;-73
2023/02/09 10:39:10;;;;;;;;;;;;;;;1.61;55.36;103080.31;5002907;28;20053;-71
2023/02/09 10:41:39;;;;;;;231.23;213.65;;;;;;;1.70;54.27;103100.53;5022399;28;19917;-73
2023/02/09 10:44:13;;;;;;;218.20;199.95;;;;;;;1.72;56.24;103114.41;5001465;28;20050;-74
2023/02/09 10:46:39;;;;;;;218.98;200.88;;;;;;;1.84;55.42;103107.09;5004286;28;20034;-72
2023/02/09 10:49:25;;;;;;;217.07;198.63;;;;;;;1.89;53.96;103092.41;5002324;28;20037;-73
2023/02/09 10:51:59;;;;;;;227.45;209.85;;;;;;;1.96;54.53;103078.56;4984547;28;20045;-73
2023/02/09 10:54:26;;;;;;;216.35;198.13;;;;;;;1.90;53.47;103067.66;5007932;28;20037;-72
2023/02/09 10:56:52;;;;;;;228.23;210.23;;;;;;;2.09;54.01;103084.28;4998729;28;20068;-72
2023/02/09 10:59:21;;;;;;;227.35;209.73;;;;;;;2.04;54.77;103082.13;5027506;28;20523;-73
2023/02/09 11:01:55;;;;;;;213.75;195.77;;;;;;;2.11;53.73;103087.63;5003144;28;20475;-72
2023/02/09 11:04:28;;;;;;;228.98;211.43;;;;;;;2.34;53.35;103099.31;5000106;28;20030;-72
2023/02/09 11:07:00;;;;;;;228.65;210.90;;;;;;;2.19;54.21;103096.41;4970773;28;20049;-73
2023/02/09 11:09:34;;;;;;;223.93;206.10;;;;;;;2.37;53.72;103109.59;5000247;28;20545;-72
2023/02/09 11:12:01;;;;;;;218.48;200.10;;;;;;;2.31;53.62;103091.69;5014771;28;20660;-72